createdAt,value
2023-03-04T00:01:35.954Z,102567.50
2023-03-04T00:04:06.800Z,102565.75
2023-03-04T00:06:34.930Z,102570.25
2023-03-04T00:09:04.044Z,102571.19
2023-03-04T00:11:32.459Z,102571.19
2023-03-04T00:14:00.453Z,102575.69
2023-03-04T00:16:28.671Z,102581.09
2023-03-04T00:18:58.939Z,102568.69
2023-03-04T00:21:26.979Z,102572.25
2023-03-04T00:23:56.925Z,102566.00
2023-03-04T00:26:26.092Z,102574.06
2023-03-04T00:28:54.066Z,102568.69
2023-03-04T00:31:22.210Z,102573.16
2023-03-04T00:33:50.145Z,102573.13
2023-03-04T00:36:19.459Z,102571.31
2023-03-04T00:38:47.470Z,102571.31
2023-03-04T00:41:15.435Z,102565.06
2023-03-04T00:43:43.326Z,102564.25
2023-03-04T00:46:11.308Z,102560.66
2023-03-04T00:48:39.699Z,102566.00
2023-03-04T00:51:07.663Z,102558.00
2023-03-04T00:53:36.975Z,102563.38
2023-03-04T00:56:05.172Z,102570.47
2023-03-04T00:58:33.113Z,102568.72
2023-03-04T01:01:01.121Z,102561.63
2023-03-04T01:03:32.721Z,102563.47
2023-03-04T01:06:00.707Z,102560.75
2023-03-04T01:08:28.640Z,102565.25
2023-03-04T01:10:57.934Z,102567.88
2023-03-04T01:13:25.907Z,102564.31
2023-03-04T01:15:53.849Z,102566.91
2023-03-04T01:18:21.765Z,102563.38
2023-03-04T01:20:49.715Z,102555.28
2023-03-04T01:23:17.967Z,102563.25
2023-03-04T01:25:45.949Z,102560.50
2023-03-04T01:28:15.358Z,102554.38
2023-03-04T01:30:43.319Z,102549.03
2023-03-04T01:33:14.114Z,102550.91
2023-03-04T01:35:42.193Z,102559.75
2023-03-04T01:38:10.163Z,102554.28
2023-03-04T01:40:39.003Z,102546.13
2023-03-04T01:43:07.372Z,102546.56
2023-03-04T01:45:39.085Z,102545.38
2023-03-04T01:48:10.270Z,102539.69
2023-03-04T01:50:38.240Z,102539.47
2023-03-04T01:53:06.286Z,102526.88
2023-03-04T01:55:34.325Z,102535.63
2023-03-04T01:58:11.495Z,102536.47
2023-03-04T02:00:41.722Z,102532.84
2023-03-04T02:03:12.899Z,102532.81
2023-03-04T02:05:43.414Z,102525.56
2023-03-04T02:08:12.651Z,102522.88
2023-03-04T02:10:41.522Z,102519.31
2023-03-04T02:13:09.495Z,102515.72
2023-03-04T02:15:37.417Z,102514.72
2023-03-04T02:18:15.435Z,102506.75
2023-03-04T02:20:54.454Z,102508.53
2023-03-04T02:23:32.186Z,102505.84
2023-03-04T02:26:26.180Z,102505.00
2023-03-04T02:28:56.031Z,102505.00
2023-03-04T02:31:30.212Z,102509.47
2023-03-04T02:34:00.534Z,102505.06
2023-03-04T02:36:29.554Z,102503.25
2023-03-04T02:39:03.379Z,102506.00
2023-03-04T02:41:33.374Z,102498.88
2023-03-04T02:44:01.425Z,102507.81
2023-03-04T02:46:29.563Z,102499.78
2023-03-04T02:48:57.563Z,102490.81
2023-03-04T02:51:25.522Z,102489.97
2023-03-04T02:53:55.083Z,102490.91
2023-03-04T02:56:22.983Z,102490.03
2023-03-04T02:58:52.354Z,102488.22
2023-03-04T03:01:20.322Z,102483.72
2023-03-04T03:03:48.300Z,102487.28
2023-03-04T03:06:18.811Z,102485.53
2023-03-04T03:08:46.802Z,102473.00
2023-03-04T03:11:14.753Z,102472.13
2023-03-04T03:13:42.680Z,102474.81
2023-03-04T03:16:12.055Z,102472.22
2023-03-04T03:18:40.500Z,102470.41
2023-03-04T03:21:08.644Z,102462.41
2023-03-04T03:23:36.683Z,102466.03
2023-03-04T03:26:05.866Z,102459.78
2023-03-04T03:28:33.864Z,102461.59
2023-03-04T03:31:04.767Z,102447.34
2023-03-04T03:33:34.229Z,102450.00
2023-03-04T03:36:02.461Z,102445.56
2023-03-04T03:38:30.475Z,102443.81
2023-03-04T03:40:58.461Z,102449.16
2023-03-04T03:43:26.612Z,102450.94
2023-03-04T03:45:54.678Z,102457.22
2023-03-04T03:48:22.688Z,102454.63
2023-03-04T03:50:52.030Z,102453.72
2023-03-04T03:53:20.019Z,102459.97
2023-03-04T03:55:47.997Z,102463.53
2023-03-04T03:58:16.316Z,102453.72
2023-03-04T04:00:44.267Z,102463.53
2023-03-04T04:03:15.622Z,102462.66
2023-03-04T04:05:43.586Z,102454.63
2023-03-04T04:08:14.583Z,102463.53
2023-03-04T04:10:42.585Z,102457.22
2023-03-04T04:13:11.139Z,102461.72
2023-03-04T04:15:41.732Z,102460.84
2023-03-04T04:18:12.219Z,102448.34
2023-03-04T04:20:40.226Z,102467.13
2023-03-04T04:23:08.124Z,102459.13
2023-03-04T04:25:37.480Z,102456.44
2023-03-04T04:28:05.561Z,102461.88
2023-03-04T04:30:35.955Z,102452.88
2023-03-04T04:33:04.945Z,102452.09
2023-03-04T04:35:33.902Z,102464.53
2023-03-04T04:38:01.916Z,102457.44
2023-03-04T04:40:30.030Z,102456.53
2023-03-04T04:42:59.512Z,102457.47
2023-03-04T04:45:27.787Z,102453.94
2023-03-04T04:47:57.486Z,102465.53
2023-03-04T04:50:26.708Z,102456.69
2023-03-04T04:52:54.756Z,102463.78
2023-03-04T04:55:22.749Z,102465.59
2023-03-04T04:57:50.760Z,102467.41
2023-03-04T05:00:21.263Z,102467.41
2023-03-04T05:02:49.244Z,102464.75
2023-03-04T05:05:17.413Z,102468.31
2023-03-04T05:07:45.469Z,102467.50
2023-03-04T05:10:13.463Z,102469.31
2023-03-04T05:12:41.377Z,102465.72
2023-03-04T05:15:13.180Z,102467.50
2023-03-04T05:17:45.100Z,102466.66
2023-03-04T05:20:13.621Z,102472.91
2023-03-04T05:22:41.657Z,102471.13
2023-03-04T05:25:10.743Z,102463.97
2023-03-04T05:27:38.820Z,102464.00
2023-03-04T05:30:11.072Z,102467.56
2023-03-04T05:32:39.084Z,102462.19
2023-03-04T05:35:09.483Z,102459.50
2023-03-04T05:37:37.483Z,102456.84
2023-03-04T05:40:09.858Z,102464.00
2023-03-04T05:42:39.685Z,102461.41
2023-03-04T05:45:09.237Z,102458.72
2023-03-04T05:47:37.269Z,102461.41
2023-03-04T05:50:05.582Z,102470.38
2023-03-04T05:52:35.064Z,102477.53
2023-03-04T05:55:03.137Z,102474.88
2023-03-04T05:57:32.478Z,102473.09
2023-03-04T06:00:00.488Z,102475.84
2023-03-04T06:02:28.545Z,102472.22
2023-03-04T06:04:56.607Z,102469.63
2023-03-04T06:07:24.574Z,102466.94
2023-03-04T06:09:53.962Z,102466.94
2023-03-04T06:12:22.026Z,102466.97
2023-03-04T06:14:52.729Z,102462.44
2023-03-04T06:17:23.326Z,102467.88
2023-03-04T06:19:51.346Z,102466.97
2023-03-04T06:22:19.338Z,102472.34
2023-03-04T06:24:47.421Z,102470.59
2023-03-04T06:27:16.908Z,102475.00
2023-03-04T06:29:44.864Z,102472.34
2023-03-04T06:32:12.860Z,102478.63
2023-03-04T06:34:40.920Z,102474.03
2023-03-04T06:37:11.700Z,102474.91
2023-03-04T06:39:39.824Z,102471.28
2023-03-04T06:42:09.790Z,102473.94
2023-03-04T06:44:39.213Z,102476.53
2023-03-04T06:47:09.683Z,102482.66
2023-03-04T06:49:37.624Z,102471.91
2023-03-04T06:52:05.867Z,102479.78
2023-03-04T06:54:36.592Z,102482.47
2023-03-04T06:57:04.823Z,102477.00
2023-03-04T06:59:32.800Z,102477.84
2023-03-04T07:02:02.447Z,102488.50
2023-03-04T07:04:30.489Z,102484.88
2023-03-04T07:07:01.254Z,102489.38
2023-03-04T07:09:32.255Z,102488.44
2023-03-04T07:12:00.249Z,102484.03
2023-03-04T07:14:28.858Z,102486.69
2023-03-04T07:16:57.165Z,102492.03
2023-03-04T07:19:26.808Z,102495.59
2023-03-04T07:21:54.867Z,102487.59
2023-03-04T07:24:22.957Z,102491.84
2023-03-04T07:26:50.941Z,102489.94
2023-03-04T07:29:19.088Z,102491.56
2023-03-04T07:31:47.043Z,102496.81
2023-03-04T07:34:15.803Z,102495.00
2023-03-04T07:36:47.923Z,102500.31
2023-03-04T07:39:16.022Z,102491.44
2023-03-04T07:41:43.985Z,102503.03
2023-03-04T07:44:14.937Z,102502.16
2023-03-04T07:46:43.039Z,102499.50
2023-03-04T07:49:13.721Z,102498.63
2023-03-04T07:51:42.319Z,102501.31
2023-03-04T07:54:14.714Z,102498.53
2023-03-04T07:56:42.764Z,102503.09
2023-03-04T07:59:10.759Z,102500.34
2023-03-04T08:01:39.595Z,102503.91
2023-03-04T08:04:09.091Z,102503.97
2023-03-04T08:06:37.209Z,102511.06
2023-03-04T08:09:07.130Z,102501.31
2023-03-04T08:11:39.944Z,102507.59
2023-03-04T08:14:09.315Z,102503.09
2023-03-04T08:16:37.316Z,102503.09
2023-03-04T08:19:06.347Z,102506.66
2023-03-04T08:21:35.429Z,102507.53
2023-03-04T08:24:08.515Z,102506.66
2023-03-04T08:26:41.901Z,102509.41
2023-03-04T08:29:13.841Z,102511.16
2023-03-04T08:31:41.961Z,102514.75
2023-03-04T08:34:11.539Z,102514.69
2023-03-04T08:36:39.525Z,102510.13
2023-03-04T08:39:07.789Z,102519.97
2023-03-04T08:41:35.821Z,102515.50
2023-03-04T08:44:05.914Z,102514.63
2023-03-04T08:46:33.833Z,102507.53
2023-03-04T08:49:01.842Z,102512.88
2023-03-04T08:51:30.186Z,102516.41
2023-03-04T08:53:58.239Z,102509.16
2023-03-04T08:56:26.303Z,102518.13
2023-03-04T08:58:54.269Z,102511.03
2023-03-04T09:01:23.830Z,102514.63
2023-03-04T09:03:53.358Z,102511.91
2023-03-04T09:06:21.732Z,102512.78
2023-03-04T09:08:49.767Z,102515.09
2023-03-04T09:11:18.359Z,102523.13
2023-03-04T09:13:46.378Z,102519.75
2023-03-04T09:16:16.035Z,102520.69
2023-03-04T09:18:45.435Z,102522.09
2023-03-04T09:21:13.572Z,102520.13
2023-03-04T09:23:41.974Z,102521.59
2023-03-04T09:26:22.530Z,102518.66
2023-03-04T09:28:54.383Z,102515.59
2023-03-04T09:31:23.244Z,102514.31
2023-03-04T09:33:53.785Z,102515.00
2023-03-04T09:36:22.304Z,102509.47
2023-03-04T09:38:52.617Z,102508.56
2023-03-04T09:41:23.307Z,102506.94
2023-03-04T09:43:53.753Z,102512.38
2023-03-04T09:46:30.848Z,102506.06
2023-03-04T09:49:00.344Z,102504.19
2023-03-04T09:51:42.498Z,102506.69
2023-03-04T09:54:16.426Z,102503.75
2023-03-04T09:56:44.450Z,102502.56
2023-03-04T09:59:18.915Z,102498.84
2023-03-04T10:01:51.256Z,102495.97
2023-03-04T10:04:31.650Z,102489.59
2023-03-04T10:07:03.619Z,102487.69
2023-03-04T10:09:41.389Z,102479.53
2023-03-04T10:12:14.522Z,102483.09
2023-03-04T10:14:51.218Z,102486.53
2023-03-04T10:17:25.056Z,102477.63
2023-03-04T10:19:59.354Z,102476.84
2023-03-04T10:22:34.367Z,102483.31
2023-03-04T10:25:15.999Z,102484.78
2023-03-04T10:27:44.469Z,102480.19
2023-03-04T10:30:22.815Z,102487.19
2023-03-04T10:32:50.747Z,102470.16
2023-03-04T10:35:24.243Z,102464.69
2023-03-04T10:37:52.938Z,102476.19
2023-03-04T10:40:23.352Z,102472.59
2023-03-04T10:42:51.571Z,102473.41
2023-03-04T10:45:25.025Z,102466.25
2023-03-04T10:47:54.798Z,102469.78
2023-03-04T10:50:26.538Z,102466.16
2023-03-04T10:52:55.968Z,102462.59
2023-03-04T10:55:27.252Z,102465.22
2023-03-04T10:57:58.083Z,102465.22
2023-03-04T11:00:29.862Z,102462.53
2023-03-04T11:03:23.805Z,102455.38
2023-03-04T11:05:54.054Z,102454.47
2023-03-04T11:08:24.394Z,102447.34
2023-03-04T11:10:53.146Z,102444.66
2023-03-04T11:13:24.059Z,102442.84
2023-03-04T11:15:57.537Z,102451.72
2023-03-04T11:18:32.724Z,102449.97
2023-03-04T11:21:02.302Z,102447.25
2023-03-04T11:23:40.763Z,102447.31
2023-03-04T11:26:13.832Z,102448.19
2023-03-04T11:28:47.818Z,102449.97
2023-03-04T11:31:19.828Z,102439.28
2023-03-04T11:33:52.536Z,102433.03
2023-03-04T11:36:33.967Z,102426.78
2023-03-04T11:39:04.336Z,102428.56
2023-03-04T11:41:36.757Z,102419.66
2023-03-04T11:44:08.979Z,102424.06
2023-03-04T11:47:02.505Z,102419.50
2023-03-04T11:49:51.069Z,102408.88
2023-03-04T11:52:32.653Z,102415.09
2023-03-04T11:55:23.416Z,102413.28
2023-03-04T11:58:00.207Z,102410.63
2023-03-04T12:00:38.931Z,102411.56
2023-03-04T12:03:32.955Z,102400.84
2023-03-04T12:06:09.484Z,102404.47
2023-03-04T12:08:57.986Z,102406.19
2023-03-04T12:11:40.186Z,102399.97
2023-03-04T12:14:24.990Z,102401.72
2023-03-04T12:17:25.989Z,102391.06
2023-03-04T12:20:14.334Z,102391.06
2023-03-04T12:22:45.792Z,102377.72
2023-03-04T12:25:38.557Z,102377.59
2023-03-04T12:28:24.088Z,102369.66
2023-03-04T12:31:16.301Z,102377.69
2023-03-04T12:33:56.728Z,102375.88
2023-03-04T12:36:36.925Z,102371.38
2023-03-04T12:39:26.467Z,102374.00
2023-03-04T12:42:07.188Z,102371.38
2023-03-04T12:44:39.955Z,102375.00
2023-03-04T12:47:21.692Z,102375.97
2023-03-04T12:50:01.834Z,102378.66
2023-03-04T12:52:46.102Z,102379.59
2023-03-04T12:55:17.293Z,102381.41
2023-03-04T12:57:47.449Z,102370.72
2023-03-04T13:00:33.913Z,102372.47
2023-03-04T13:03:13.009Z,102369.88
2023-03-04T13:05:57.380Z,102364.50
2023-03-04T13:08:33.870Z,102356.47
2023-03-04T13:11:25.433Z,102359.16
2023-03-04T13:14:04.532Z,102356.47
2023-03-04T13:16:35.937Z,102352.06
2023-03-04T13:19:04.024Z,102349.31
2023-03-04T13:21:47.752Z,102341.28
2023-03-04T13:24:45.665Z,102343.19
2023-03-04T13:27:49.294Z,102337.91
2023-03-04T13:30:43.878Z,102335.25
2023-03-04T13:33:48.176Z,102336.03
2023-03-04T13:36:31.206Z,102337.75
2023-03-04T13:39:02.412Z,102332.28
2023-03-04T13:41:32.393Z,102336.66
2023-03-04T13:44:01.510Z,102334.75
2023-03-04T13:46:44.736Z,102339.13
2023-03-04T13:49:22.220Z,102339.91
2023-03-04T13:51:53.856Z,102339.75
2023-03-04T13:54:28.888Z,102332.53
2023-03-04T13:57:12.949Z,102324.44
2023-03-04T13:59:44.129Z,102331.56
2023-03-04T14:02:17.044Z,102337.16
2023-03-04T14:04:47.736Z,102342.44
2023-03-04T14:07:22.238Z,102330.81
2023-03-04T14:10:01.915Z,102329.03
2023-03-04T14:12:31.676Z,102328.13
2023-03-04T14:15:02.497Z,102323.63
2023-03-04T14:17:36.916Z,102318.22
2023-03-04T14:20:06.450Z,102318.22
2023-03-04T14:22:40.700Z,102319.94
2023-03-04T14:25:22.470Z,102314.56
2023-03-04T14:27:50.506Z,102318.03
2023-03-04T14:30:40.630Z,102305.66
2023-03-04T14:33:18.981Z,102306.44
2023-03-04T14:35:49.214Z,102318.84
2023-03-04T14:38:24.288Z,102316.09
2023-03-04T14:40:56.536Z,102293.28
2023-03-04T14:43:24.934Z,102305.50
2023-03-04T14:45:56.409Z,102299.16
2023-03-04T14:48:29.474Z,102298.84
2023-03-04T14:51:01.204Z,102297.84
2023-03-04T14:53:31.976Z,102293.28
2023-03-04T14:56:02.110Z,102296.72
2023-03-04T14:58:31.673Z,102296.63
2023-03-04T15:01:09.256Z,102298.34
2023-03-04T15:03:38.803Z,102292.03
2023-03-04T15:06:18.755Z,102287.50
2023-03-04T15:08:47.602Z,102282.06
2023-03-04T15:11:24.808Z,102279.34
2023-03-04T15:13:54.966Z,102273.06
2023-03-04T15:16:25.424Z,102274.78
2023-03-04T15:19:01.741Z,102265.91
2023-03-04T15:21:36.825Z,102273.84
2023-03-04T15:24:06.254Z,102268.50
2023-03-04T15:26:35.821Z,102255.97
2023-03-04T15:29:05.271Z,102257.75
2023-03-04T15:31:33.320Z,102267.50
2023-03-04T15:34:02.629Z,102270.19
2023-03-04T15:36:30.618Z,102257.75
2023-03-04T15:38:59.277Z,102264.75
2023-03-04T15:41:27.970Z,102263.91
2023-03-04T15:43:56.232Z,102268.34
2023-03-04T15:46:26.509Z,102261.22
2023-03-04T15:48:57.217Z,102261.16
2023-03-04T15:51:27.876Z,102273.63
2023-03-04T15:53:57.952Z,102270.06
2023-03-04T15:56:27.970Z,102267.41
2023-03-04T15:59:00.531Z,102270.88
2023-03-04T16:01:28.894Z,102270.88
2023-03-04T16:03:56.852Z,102274.50
2023-03-04T16:06:28.703Z,102270.94
2023-03-04T16:08:56.719Z,102275.31
2023-03-04T16:11:27.048Z,102266.47
2023-03-04T16:13:55.426Z,102262.03
2023-03-04T16:16:23.579Z,102261.09
2023-03-04T16:18:51.514Z,102270.00
2023-03-04T16:21:24.094Z,102260.16
2023-03-04T16:23:54.492Z,102260.16
2023-03-04T16:26:36.717Z,102261.97
2023-03-04T16:29:04.647Z,102262.84
2023-03-04T16:31:34.731Z,102253.31
2023-03-04T16:34:02.851Z,102253.19
2023-03-04T16:36:31.201Z,102255.00
2023-03-04T16:39:04.288Z,102249.59
2023-03-04T16:41:32.287Z,102246.84
2023-03-04T16:44:00.880Z,102243.97
2023-03-04T16:46:29.999Z,102252.94
2023-03-04T16:48:58.090Z,102251.75
2023-03-04T16:51:25.982Z,102259.53
2023-03-04T16:53:57.316Z,102254.88
2023-03-04T16:56:28.133Z,102257.41
2023-03-04T16:58:56.145Z,102258.16
2023-03-04T17:01:25.805Z,102261.78
2023-03-04T17:03:54.962Z,102261.69
2023-03-04T17:06:24.230Z,102262.44
2023-03-04T17:08:56.704Z,102256.00
2023-03-04T17:11:26.642Z,102258.69
2023-03-04T17:13:57.767Z,102266.59
2023-03-04T17:16:25.860Z,102262.91
2023-03-04T17:18:54.236Z,102255.69
2023-03-04T17:21:24.326Z,102263.66
2023-03-04T17:23:52.997Z,102268.94
2023-03-04T17:26:22.623Z,102263.53
2023-03-04T17:28:52.317Z,102264.31
2023-03-04T17:31:21.367Z,102261.63
2023-03-04T17:33:50.296Z,102266.00
2023-03-04T17:36:20.248Z,102268.59
2023-03-04T17:38:48.355Z,102266.75
2023-03-04T17:41:18.673Z,102281.84
2023-03-04T17:43:47.621Z,102274.66
2023-03-04T17:46:18.749Z,102277.25
2023-03-04T17:48:49.783Z,102289.69
2023-03-04T17:51:17.849Z,102283.34
2023-03-04T17:53:45.831Z,102283.22
2023-03-04T17:56:14.315Z,102284.03
2023-03-04T17:58:42.271Z,102284.84
2023-03-04T18:01:18.997Z,102283.03
2023-03-04T18:03:47.230Z,102285.63
2023-03-04T18:06:18.393Z,102283.81
2023-03-04T18:08:46.751Z,102289.13
2023-03-04T18:11:14.823Z,102273.84
2023-03-04T18:13:43.822Z,102289.94
2023-03-04T18:16:18.686Z,102294.34
2023-03-04T18:18:47.850Z,102298.78
2023-03-04T18:21:15.817Z,102303.19
2023-03-04T18:23:43.768Z,102298.72
2023-03-04T18:26:11.872Z,102309.44
2023-03-04T18:28:40.070Z,102308.56
2023-03-04T18:31:08.088Z,102305.81
2023-03-04T18:33:36.637Z,102304.94
2023-03-04T18:36:09.236Z,102300.53
2023-03-04T18:38:37.503Z,102296.91
2023-03-04T18:41:07.202Z,102291.53
2023-03-04T18:43:35.411Z,102304.06
2023-03-04T18:46:06.415Z,102299.66
2023-03-04T18:48:35.720Z,102307.63
2023-03-04T18:51:05.828Z,102302.22
2023-03-04T18:53:36.583Z,102304.94
2023-03-04T18:56:11.972Z,102304.03
2023-03-04T18:58:44.551Z,102304.03
2023-03-04T19:01:17.816Z,102300.41
2023-03-04T19:03:46.824Z,102300.41
2023-03-04T19:06:16.306Z,102303.94
2023-03-04T19:08:44.441Z,102311.13
2023-03-04T19:11:12.520Z,102305.75
2023-03-04T19:13:40.519Z,102297.72
2023-03-04T19:16:09.126Z,102299.47
2023-03-04T19:18:37.181Z,102300.41
2023-03-04T19:21:05.612Z,102300.28
2023-03-04T19:23:35.149Z,102298.50
2023-03-04T19:26:03.639Z,102303.88
2023-03-04T19:28:33.668Z,102296.78
2023-03-04T19:31:06.379Z,102304.75
2023-03-04T19:33:36.486Z,102303.88
2023-03-04T19:36:05.549Z,102301.19
2023-03-04T19:38:35.468Z,102309.22
2023-03-04T19:41:10.189Z,102303.00
2023-03-04T19:43:39.270Z,102303.88
2023-03-04T19:46:08.715Z,102292.28
2023-03-04T19:48:37.700Z,102299.38
2023-03-04T19:51:06.524Z,102291.28
2023-03-04T19:53:35.921Z,102288.59
2023-03-04T19:56:04.004Z,102285.06
2023-03-04T19:58:32.023Z,102281.44
2023-03-04T20:01:00.041Z,102287.44
2023-03-04T20:03:30.144Z,102294.06
2023-03-04T20:06:04.543Z,102289.19
2023-03-04T20:08:32.656Z,102293.44
2023-03-04T20:11:02.359Z,102285.19
2023-03-04T20:13:30.289Z,102281.50
2023-03-04T20:15:58.265Z,102289.41
2023-03-04T20:18:26.309Z,102282.16
2023-03-04T20:20:57.380Z,102284.66
2023-03-04T20:23:26.713Z,102281.97
2023-03-04T20:25:56.938Z,102289.88
2023-03-04T20:28:27.000Z,102282.72
2023-03-04T20:30:55.196Z,102288.88
2023-03-04T20:33:23.162Z,102291.50
2023-03-04T20:35:51.137Z,102289.59
2023-03-04T20:38:19.140Z,102289.56
2023-03-04T20:40:47.108Z,102290.34
2023-03-04T20:43:17.877Z,102289.47
2023-03-04T20:45:47.283Z,102292.88
2023-03-04T20:48:18.425Z,102298.25
2023-03-04T20:50:46.389Z,102297.31
2023-03-04T20:53:14.437Z,102302.63
2023-03-04T20:55:42.425Z,102291.81
2023-03-04T20:58:10.335Z,102293.56
2023-03-04T21:00:38.402Z,102294.44
2023-03-04T21:03:07.816Z,102297.06
2023-03-04T21:05:35.727Z,102288.06
2023-03-04T21:08:03.752Z,102285.31
2023-03-04T21:10:31.698Z,102283.50
2023-03-04T21:12:59.730Z,102285.31
2023-03-04T21:15:27.832Z,102285.25
2023-03-04T21:17:55.793Z,102282.56
2023-03-04T21:20:30.426Z,102279.78
2023-03-04T21:22:58.402Z,102280.69
2023-03-04T21:25:27.890Z,102269.97
2023-03-04T21:27:55.895Z,102267.28
2023-03-04T21:30:23.889Z,102264.38
2023-03-04T21:32:52.642Z,102263.19
2023-03-04T21:35:21.518Z,102270.22
2023-03-04T21:37:51.393Z,102264.78
2023-03-04T21:40:19.642Z,102265.59
2023-03-04T21:42:50.250Z,102264.72
2023-03-04T21:45:18.629Z,102259.38
2023-03-04T21:47:46.665Z,102256.69
2023-03-04T21:50:14.652Z,102260.22
2023-03-04T21:52:42.824Z,102257.47
2023-03-04T21:55:12.630Z,102247.59
2023-03-04T21:57:40.618Z,102252.09
2023-03-04T22:00:14.223Z,102257.47
2023-03-04T22:02:42.250Z,102252.09
2023-03-04T22:05:10.585Z,102248.63
2023-03-04T22:07:38.549Z,102245.00
2023-03-04T22:10:07.633Z,102237.03
2023-03-04T22:12:36.922Z,102246.88
2023-03-04T22:15:05.294Z,102250.38
2023-03-04T22:17:35.013Z,102244.19
2023-03-04T22:20:03.092Z,102235.34
2023-03-04T22:22:33.329Z,102241.66
2023-03-04T22:25:01.445Z,102239.84
2023-03-04T22:27:30.581Z,102243.47
2023-03-04T22:29:59.874Z,102233.66
2023-03-04T22:32:29.521Z,102242.59
2023-03-04T22:34:57.560Z,102243.53
2023-03-04T22:37:28.203Z,102234.63
2023-03-04T22:39:56.144Z,102238.28
2023-03-04T22:42:24.214Z,102238.28
2023-03-04T22:44:52.153Z,102234.75
2023-03-04T22:47:22.518Z,102237.44
2023-03-04T22:49:50.504Z,102230.34
2023-03-04T22:52:20.148Z,102228.59
2023-03-04T22:54:48.181Z,102217.00
2023-03-04T22:57:16.149Z,102220.59
2023-03-04T22:59:44.056Z,102212.63
2023-03-04T23:02:12.055Z,102207.28
2023-03-04T23:04:42.987Z,102205.53
2023-03-04T23:07:11.097Z,102209.13
2023-03-04T23:09:39.091Z,102209.13
2023-03-04T23:12:07.746Z,102207.41
2023-03-04T23:14:35.886Z,102208.28
2023-03-04T23:17:03.863Z,102207.41
2023-03-04T23:19:31.809Z,102200.31
2023-03-04T23:22:02.544Z,102197.72
2023-03-04T23:24:30.515Z,102197.72
2023-03-04T23:26:58.536Z,102196.81
2023-03-04T23:29:28.020Z,102190.59
2023-03-04T23:31:55.988Z,102189.72
2023-03-04T23:34:23.915Z,102190.59
2023-03-04T23:36:51.817Z,102184.44
2023-03-04T23:39:21.201Z,102186.16
2023-03-04T23:41:49.184Z,102183.47
2023-03-04T23:44:17.225Z,102186.16
2023-03-04T23:46:45.205Z,102187.91
2023-03-04T23:49:16.978Z,102179.84
2023-03-04T23:51:45.633Z,102175.31
2023-03-04T23:54:14.192Z,102176.09
2023-03-04T23:56:43.553Z,102176.09
2023-03-04T23:59:11.950Z,102173.41
